createdAt,value
2019-04-10T00:02:17.561Z,7.40
2019-04-10T00:04:53.688Z,7.53
2019-04-10T00:07:29.631Z,7.47
2019-04-10T00:10:01.743Z,7.63
2019-04-10T00:12:38.769Z,6.87
2019-04-10T00:15:11.193Z,7.80
2019-04-10T00:17:40.936Z,7.33
2019-04-10T00:20:12.392Z,7.20
2019-04-10T00:22:48.639Z,7.50
2019-04-10T00:25:26.550Z,7.10
2019-04-10T00:28:03.432Z,7.50
2019-04-10T00:30:35.385Z,7.20
2019-04-10T00:33:06.102Z,7.93
2019-04-10T00:35:40.149Z,7.50
2019-04-10T00:38:13.597Z,7.87
2019-04-10T00:40:43.805Z,7.37
2019-04-10T00:43:16.954Z,7.93
2019-04-10T00:45:49.454Z,7.90
2019-04-10T00:48:20.202Z,7.43
2019-04-10T00:50:50.956Z,7.77
2019-04-10T00:53:21.166Z,7.77
2019-04-10T00:55:50.379Z,7.63
2019-04-10T00:58:20.400Z,7.30
2019-04-10T01:00:55.409Z,7.37
2019-04-10T01:03:42.968Z,8.10
2019-04-10T01:06:14.188Z,7.13
2019-04-10T01:08:44.872Z,7.70
2019-04-10T01:11:15.528Z,7.47
2019-04-10T01:13:45.405Z,7.43
2019-04-10T01:16:17.803Z,8.03
2019-04-10T01:18:51.168Z,7.90
2019-04-10T01:21:19.997Z,7.63
2019-04-10T01:23:49.243Z,8.03
2019-04-10T01:26:23.382Z,7.60
2019-04-10T01:28:54.239Z,7.33
2019-04-10T01:31:28.818Z,7.47
2019-04-10T01:33:59.572Z,7.37
2019-04-10T01:36:29.035Z,7.13
2019-04-10T01:38:59.949Z,7.40
2019-04-10T01:41:30.666Z,8.10
2019-04-10T01:44:01.475Z,8.10
2019-04-10T01:46:34.423Z,8.10
2019-04-10T01:49:03.675Z,7.53
2019-04-10T01:51:33.051Z,8.10
2019-04-10T01:54:02.742Z,8.80
2019-04-10T01:56:36.060Z,8.57
2019-04-10T01:59:05.550Z,8.67
2019-04-10T02:01:36.985Z,8.33
2019-04-10T02:04:06.753Z,7.70
2019-04-10T02:06:35.964Z,8.10
2019-04-10T02:09:08.125Z,7.90
2019-04-10T02:11:37.679Z,8.03
2019-04-10T02:14:08.427Z,8.23
2019-04-10T02:16:37.520Z,8.53
2019-04-10T02:19:08.214Z,7.93
2019-04-10T02:21:40.081Z,7.90
2019-04-10T02:24:09.303Z,7.87
2019-04-10T02:26:38.541Z,8.70
2019-04-10T02:29:09.210Z,9.03
2019-04-10T02:31:40.502Z,8.53
2019-04-10T02:34:12.904Z,8.23
2019-04-10T02:36:42.600Z,7.93
2019-04-10T02:39:21.898Z,8.10
2019-04-10T02:41:43.973Z,7.83
2019-04-10T02:44:16.356Z,8.00
2019-04-10T02:46:47.321Z,8.17
2019-04-10T02:49:18.486Z,8.27
2019-04-10T02:51:49.853Z,7.97
2019-04-10T02:54:21.198Z,8.33
2019-04-10T02:56:50.558Z,8.37
2019-04-10T02:59:21.141Z,7.63
2019-04-10T03:01:51.975Z,7.70
2019-04-10T03:04:24.327Z,7.50
2019-04-10T03:06:55.474Z,7.33
2019-04-10T03:09:42.036Z,7.63
2019-04-10T03:11:57.415Z,8.23
2019-04-10T03:14:28.660Z,7.60
2019-04-10T03:16:58.080Z,7.27
2019-04-10T03:19:29.575Z,7.73
2019-04-10T03:22:07.916Z,7.77
2019-04-10T03:24:38.857Z,8.57
2019-04-10T03:27:24.233Z,6.83
2019-04-10T03:30:03.028Z,7.80
2019-04-10T03:32:41.672Z,7.00
2019-04-10T03:35:23.049Z,7.67
2019-04-10T03:37:59.512Z,7.00
2019-04-10T03:40:32.551Z,7.23
2019-04-10T03:43:29.906Z,7.30
2019-04-10T03:52:27.740Z,7.57
2019-04-10T03:54:58.731Z,6.73
2019-04-10T03:57:44.993Z,6.77
2019-04-10T04:00:14.241Z,6.90
2019-04-10T04:02:44.192Z,6.97
2019-04-10T04:05:13.425Z,6.97
2019-04-10T04:07:43.169Z,7.60
2019-04-10T04:10:16.701Z,6.50
2019-04-10T04:12:46.742Z,7.23
2019-04-10T04:15:21.882Z,7.23
2019-04-10T04:17:52.652Z,6.77
2019-04-10T04:20:21.928Z,7.37
2019-04-10T04:22:52.950Z,7.17
2019-04-10T04:25:22.585Z,7.07
2019-04-10T04:27:53.878Z,6.93
2019-04-10T04:30:23.119Z,6.83
2019-04-10T04:32:56.408Z,7.03
2019-04-10T04:35:25.854Z,6.77
2019-04-10T04:37:58.291Z,6.93
2019-04-10T04:40:52.785Z,7.23
2019-04-10T04:43:23.427Z,7.27
2019-04-10T04:45:57.603Z,7.60
2019-04-10T04:48:35.525Z,7.27
2019-04-10T04:51:06.718Z,7.03
2019-04-10T04:53:36.400Z,7.33
2019-04-10T04:56:07.430Z,6.70
2019-04-10T04:58:38.172Z,7.50
2019-04-10T05:01:11.255Z,7.20
2019-04-10T05:03:42.120Z,6.70
2019-04-10T05:06:12.920Z,7.17
2019-04-10T05:08:42.214Z,6.73
2019-04-10T05:11:11.899Z,6.83
2019-04-10T05:13:40.936Z,7.20
2019-04-10T05:16:11.178Z,7.57
2019-04-10T05:18:40.332Z,7.80
2019-04-10T05:21:10.539Z,6.80
2019-04-10T05:23:40.647Z,6.40
2019-04-10T05:26:11.568Z,6.60
2019-04-10T05:38:29.113Z,7.10
2019-04-10T05:40:57.133Z,6.50
2019-04-10T05:43:26.226Z,7.80
2019-04-10T05:45:55.205Z,6.87
2019-04-10T05:48:25.446Z,7.03
2019-04-10T05:51:02.352Z,6.90
2019-04-10T05:53:26.609Z,6.93
2019-04-10T05:55:55.886Z,6.80
2019-04-10T05:58:25.810Z,6.57
2019-04-10T06:00:56.850Z,7.33
2019-04-10T06:03:25.925Z,6.90
2019-04-10T06:05:54.883Z,7.13
2019-04-10T06:08:23.875Z,6.43
2019-04-10T06:10:52.911Z,6.67
2019-04-10T06:13:22.819Z,7.00
2019-04-10T06:15:52.917Z,6.50
2019-04-10T06:18:22.848Z,7.13
2019-04-10T06:20:51.968Z,6.60
2019-04-10T06:23:21.275Z,6.10
2019-04-10T06:25:50.879Z,7.30
2019-04-10T06:28:19.916Z,6.87
2019-04-10T06:30:48.915Z,6.63
2019-04-10T06:33:18.057Z,7.33
2019-04-10T06:35:47.079Z,6.93
2019-04-10T06:38:16.869Z,7.67
2019-04-10T06:40:46.106Z,6.77
2019-04-10T06:43:15.246Z,6.93
2019-04-10T06:45:44.255Z,7.73
2019-04-10T06:48:13.292Z,6.90
2019-04-10T06:50:43.214Z,7.23
2019-04-10T06:53:15.691Z,7.37
2019-04-10T06:55:44.806Z,7.43
2019-04-10T06:58:13.876Z,6.90
2019-04-10T07:00:45.589Z,7.30
2019-04-10T07:03:15.105Z,7.13
2019-04-10T07:05:59.904Z,7.90
2019-04-10T07:08:19.355Z,7.47
2019-04-10T07:10:54.168Z,7.60
2019-04-10T07:13:16.123Z,8.23
2019-04-10T07:15:45.835Z,8.00
2019-04-10T07:18:18.491Z,7.87
2019-04-10T07:20:47.869Z,7.10
2019-04-10T07:23:22.446Z,9.63
2019-04-10T07:25:48.409Z,8.43
2019-04-10T07:28:21.460Z,7.87
2019-04-10T07:30:51.893Z,7.40
2019-04-10T07:59:11.162Z,8.57
2019-04-10T08:01:42.112Z,8.63
2019-04-10T08:04:12.412Z,9.67
2019-04-10T08:06:44.706Z,8.87
2019-04-10T08:09:14.743Z,9.33
2019-04-10T08:11:44.799Z,9.23
2019-04-10T08:14:14.749Z,9.33
2019-04-10T08:16:43.952Z,8.80
2019-04-10T08:19:12.953Z,9.73
2019-04-10T08:21:42.378Z,8.63
2019-04-10T08:24:11.510Z,8.93
2019-04-10T08:26:40.934Z,9.77
2019-04-10T08:29:10.098Z,8.73
2019-04-10T08:31:39.670Z,9.17
2019-04-10T08:34:08.916Z,9.30
2019-04-10T08:36:37.956Z,9.20
2019-04-10T08:39:08.998Z,9.57
2019-04-10T08:41:39.525Z,9.73
2019-04-10T08:44:11.402Z,10.53
2019-04-10T08:46:42.011Z,10.70
2019-04-10T08:49:11.888Z,10.23
2019-04-10T08:51:41.600Z,9.90
2019-04-10T08:54:10.739Z,10.37
2019-04-10T08:56:40.704Z,9.47
2019-04-10T08:59:09.853Z,9.57
2019-04-10T09:01:39.691Z,9.73
2019-04-10T09:04:10.432Z,10.10
2019-04-10T09:06:39.802Z,10.10
2019-04-10T09:09:09.808Z,10.53
2019-04-10T09:11:40.959Z,10.27
2019-04-10T09:14:10.724Z,10.20
2019-04-10T09:16:39.738Z,10.83
2019-04-10T09:19:12.378Z,10.67
2019-04-10T09:21:43.709Z,11.27
2019-04-10T09:24:15.679Z,11.40
2019-04-10T09:26:44.781Z,10.93
2019-04-10T09:29:14.121Z,10.50
2019-04-10T09:31:43.981Z,10.50
2019-04-10T09:34:13.794Z,10.30
2019-04-10T09:36:43.962Z,11.27
2019-04-10T09:39:17.139Z,11.23
2019-04-10T09:41:48.892Z,11.53
2019-04-10T09:44:20.787Z,11.57
2019-04-10T09:46:49.578Z,12.43
2019-04-10T09:49:30.380Z,11.97
2019-04-10T09:51:52.253Z,11.33
2019-04-10T09:54:24.428Z,11.83
2019-04-10T09:56:53.451Z,11.67
2019-04-10T09:59:33.978Z,12.13
2019-04-10T10:01:53.410Z,11.13
2019-04-10T10:04:23.587Z,11.67
2019-04-10T10:06:53.538Z,10.70
2019-04-10T10:09:23.805Z,10.90
2019-04-10T10:11:53.486Z,10.50
2019-04-10T10:14:23.069Z,11.07
2019-04-10T10:16:52.606Z,10.57
2019-04-10T10:19:21.862Z,10.87
2019-04-10T10:21:50.870Z,9.50
2019-04-10T10:24:19.863Z,10.43
2019-04-10T10:26:49.365Z,9.87
2019-04-10T10:29:18.412Z,10.63
2019-04-10T10:31:49.771Z,10.20
2019-04-10T10:34:18.576Z,10.57
2019-04-10T10:36:50.550Z,10.43
2019-04-10T10:39:21.078Z,10.50
2019-04-10T10:41:51.895Z,10.60
2019-04-10T10:44:21.978Z,10.70
2019-04-10T10:46:51.562Z,10.27
2019-04-10T10:49:20.748Z,10.60
2019-04-10T10:51:49.763Z,10.13
2019-04-10T10:54:18.966Z,10.53
2019-04-10T10:56:48.784Z,11.03
2019-04-10T10:59:17.978Z,11.10
2019-04-10T11:01:48.371Z,10.87
2019-04-10T11:04:19.047Z,11.93
2019-04-10T11:06:56.028Z,11.93
2019-04-10T11:09:19.691Z,11.80
2019-04-10T11:11:49.463Z,12.37
2019-04-10T11:14:19.153Z,12.63
2019-04-10T11:16:51.670Z,12.73
2019-04-10T11:19:21.131Z,12.30
2019-04-10T11:21:51.002Z,12.27
2019-04-10T11:24:20.145Z,13.47
2019-04-10T11:26:50.362Z,12.87
2019-04-10T11:29:21.867Z,12.10
2019-04-10T11:31:53.771Z,11.83
2019-04-10T11:34:24.233Z,12.03
2019-04-10T11:37:20.273Z,10.70
2019-04-10T11:39:35.929Z,9.73
2019-04-10T11:42:06.561Z,10.33
2019-04-10T11:44:42.505Z,9.10
2019-04-10T11:47:10.777Z,10.63
2019-04-10T11:49:44.397Z,9.30
2019-04-10T11:52:14.505Z,9.27
2019-04-10T11:54:44.895Z,8.93
2019-04-10T11:57:19.721Z,9.47
2019-04-10T11:59:49.879Z,8.50
2019-04-10T12:02:22.942Z,8.10
2019-04-10T12:04:57.008Z,8.37
2019-04-10T12:07:52.605Z,7.53
2019-04-10T12:12:22.023Z,7.57
2019-04-10T12:14:52.055Z,7.57
2019-04-10T12:17:22.132Z,7.80
2019-04-10T12:19:52.097Z,8.37
2019-04-10T12:22:21.279Z,6.80
2019-04-10T12:24:51.307Z,7.70
2019-04-10T12:27:20.940Z,7.53
2019-04-10T12:29:50.983Z,8.30
2019-04-10T12:32:20.837Z,8.27
2019-04-10T12:34:53.311Z,8.03
2019-04-10T12:37:23.523Z,7.93
2019-04-10T12:39:52.990Z,8.20
2019-04-10T12:42:22.091Z,7.70
2019-04-10T12:44:51.416Z,7.47
2019-04-10T12:47:20.463Z,6.90
2019-04-10T12:49:51.929Z,7.37
2019-04-10T12:52:22.816Z,7.07
2019-04-10T12:54:51.777Z,6.83
2019-04-10T12:57:21.085Z,6.43
2019-04-10T12:59:50.139Z,7.47
2019-04-10T13:02:19.125Z,7.00
2019-04-10T13:04:49.014Z,7.07
2019-04-10T13:07:19.117Z,7.10
2019-04-10T13:09:48.524Z,7.47
2019-04-10T13:12:17.675Z,7.03
2019-04-10T13:14:48.554Z,7.23
2019-04-10T13:17:19.918Z,6.97
2019-04-10T13:19:51.426Z,6.80
2019-04-10T13:22:24.954Z,7.50
2019-04-10T13:24:54.135Z,6.57
2019-04-10T13:27:33.550Z,7.57
2019-04-10T13:30:02.924Z,6.70
2019-04-10T13:32:32.042Z,6.50
2019-04-10T13:35:01.786Z,6.13
2019-04-10T13:37:31.697Z,6.60
2019-04-10T13:40:01.640Z,6.73
2019-04-10T13:42:31.622Z,6.47
2019-04-10T13:45:02.850Z,7.30
2019-04-10T13:47:32.365Z,6.73
2019-04-10T13:50:02.367Z,8.13
2019-04-10T13:52:32.130Z,7.03
2019-04-10T13:55:01.198Z,7.37
2019-04-10T13:57:30.650Z,7.03
2019-04-10T13:59:59.795Z,7.27
2019-04-10T14:02:32.167Z,6.40
2019-04-10T14:05:01.340Z,7.10
2019-04-10T14:07:31.768Z,7.13
2019-04-10T14:10:00.939Z,7.53
2019-04-10T14:12:31.105Z,6.53
2019-04-10T14:15:01.394Z,7.00
2019-04-10T14:17:30.844Z,6.60
2019-04-10T14:20:00.107Z,6.83
2019-04-10T14:22:29.535Z,6.10
2019-04-10T14:24:58.979Z,6.70
2019-04-10T14:27:30.224Z,6.67
2019-04-10T14:29:59.222Z,6.73
2019-04-10T14:32:36.105Z,6.80
2019-04-10T14:35:08.636Z,6.70
2019-04-10T14:37:38.713Z,6.13
2019-04-10T14:40:09.339Z,6.03
2019-04-10T14:42:38.503Z,6.03
2019-04-10T14:45:08.896Z,6.70
2019-04-10T14:47:39.183Z,6.47
2019-04-10T14:50:09.372Z,6.10
2019-04-10T14:53:15.906Z,6.47
2019-04-10T14:55:54.565Z,6.73
2019-04-10T15:08:03.690Z,6.87
2019-04-10T15:26:57.182Z,6.67
2019-04-10T15:29:26.293Z,7.80
2019-04-10T15:31:55.890Z,6.63
2019-04-10T15:34:26.051Z,6.57
2019-04-10T15:36:56.397Z,6.93
2019-04-10T15:39:32.275Z,6.60
2019-04-10T15:41:57.261Z,6.83
2019-04-10T15:44:26.514Z,6.77
2019-04-10T15:46:55.557Z,6.03
2019-04-10T15:49:25.050Z,7.37
2019-04-10T15:51:55.194Z,7.23
2019-04-10T15:54:24.282Z,6.93
2019-04-10T15:56:54.125Z,6.60
2019-04-10T15:59:23.902Z,6.80
2019-04-10T16:01:53.077Z,6.70
2019-04-10T16:04:23.268Z,6.90
2019-04-10T16:06:53.732Z,7.10
2019-04-10T16:09:23.229Z,7.73
2019-04-10T16:12:00.463Z,7.13
2019-04-10T16:14:31.375Z,7.30
2019-04-10T16:17:18.055Z,7.33
2019-04-10T16:19:49.218Z,7.07
2019-04-10T16:22:19.875Z,6.67
2019-04-10T16:24:49.156Z,7.73
2019-04-10T17:20:32.903Z,6.90
2019-04-10T17:28:10.218Z,6.83
2019-04-10T17:30:40.074Z,6.60
2019-04-10T17:33:09.308Z,7.07
2019-04-10T17:35:38.390Z,8.07
2019-04-10T17:38:07.413Z,7.03
2019-04-10T17:40:45.888Z,7.37
2019-04-10T17:43:08.548Z,7.13
2019-04-10T17:45:38.580Z,17.93
2019-04-10T17:48:07.829Z,7.27
2019-04-10T17:50:37.278Z,7.53
2019-04-10T17:53:07.261Z,7.00
2019-04-10T17:55:37.632Z,7.23
2019-04-10T17:58:07.397Z,7.43
2019-04-10T18:00:38.166Z,12.43
2019-04-10T18:03:07.633Z,11.03
2019-04-10T18:05:37.092Z,7.70
2019-04-10T18:08:06.397Z,7.23
2019-04-10T18:10:44.737Z,6.50
2019-04-10T18:13:06.195Z,6.67
2019-04-10T18:15:35.910Z,6.70
2019-04-10T18:18:05.280Z,6.73
2019-04-10T18:20:35.808Z,6.37
2019-04-10T18:23:05.067Z,6.50
2019-04-10T18:25:34.152Z,7.00
2019-04-10T18:28:03.458Z,6.70
2019-04-10T18:30:34.109Z,6.53
2019-04-10T18:33:05.100Z,6.37
2019-04-10T18:35:35.263Z,5.97
2019-04-10T18:38:05.875Z,6.97
2019-04-10T18:40:35.257Z,6.80
2019-04-10T18:43:04.454Z,7.47
2019-04-10T18:45:33.733Z,6.60
2019-04-10T18:48:02.881Z,6.80
2019-04-10T18:50:34.311Z,5.90
2019-04-10T18:53:03.753Z,7.13
2019-04-10T18:55:32.781Z,7.40
2019-04-10T18:58:03.537Z,6.07
2019-04-10T19:00:51.949Z,6.40
2019-04-10T19:03:25.597Z,5.70
2019-04-10T19:05:56.356Z,6.10
2019-04-10T19:08:26.029Z,6.50
2019-04-10T19:11:08.108Z,6.23
2019-04-10T19:13:26.620Z,6.93
2019-04-10T19:15:55.748Z,6.33
2019-04-10T19:18:25.836Z,6.83
2019-04-10T19:20:56.583Z,7.43
2019-04-10T19:23:25.851Z,6.23
2019-04-10T19:25:54.875Z,5.67
2019-04-10T19:28:30.017Z,5.93
2019-04-10T19:31:11.104Z,5.60
2019-04-10T19:33:35.706Z,5.80
2019-04-10T19:36:05.689Z,7.07
2019-04-10T19:38:35.638Z,7.00
2019-04-10T19:41:19.993Z,6.40
2019-04-10T19:43:38.230Z,6.57
2019-04-10T19:46:08.756Z,6.20
2019-04-10T19:48:37.812Z,6.20
2019-04-10T19:51:07.958Z,6.70
2019-04-10T19:53:37.416Z,6.63
2019-04-10T19:56:06.620Z,7.10
2019-04-10T19:58:36.538Z,6.50
2019-04-10T20:01:06.727Z,5.93
2019-04-10T20:03:35.735Z,6.10
2019-04-10T20:06:05.937Z,6.50
2019-04-10T20:08:35.612Z,6.00
2019-04-10T20:11:04.718Z,7.23
2019-04-10T20:13:34.637Z,6.40
2019-04-10T20:16:03.956Z,5.97
2019-04-10T20:18:37.004Z,6.77
2019-04-10T20:21:06.134Z,6.33
2019-04-10T20:23:36.094Z,7.10
2019-04-10T20:26:05.396Z,6.97
2019-04-10T20:28:34.368Z,6.80
2019-04-10T20:31:04.825Z,5.93
2019-04-10T20:33:34.642Z,6.10
2019-04-10T20:36:04.708Z,6.60
2019-04-10T20:38:36.692Z,6.47
2019-04-10T20:41:06.609Z,7.90
2019-04-10T20:43:35.744Z,7.30
2019-04-10T20:46:05.427Z,7.37
2019-04-10T20:48:36.218Z,7.67
2019-04-10T20:51:06.144Z,7.10
2019-04-10T20:53:35.930Z,6.87
2019-04-10T20:56:08.361Z,7.13
2019-04-10T20:58:38.238Z,6.80
2019-04-10T21:01:08.251Z,7.00
2019-04-10T21:03:38.113Z,6.67
2019-04-10T21:06:07.133Z,6.60
2019-04-10T21:08:36.333Z,7.60
2019-04-10T21:11:05.651Z,7.80
2019-04-10T21:13:34.765Z,5.93
2019-04-10T21:16:03.990Z,6.27
2019-04-10T21:18:33.031Z,6.47
2019-04-10T21:21:02.106Z,6.60
2019-04-10T21:23:31.406Z,6.37
2019-04-10T21:26:00.512Z,6.33
2019-04-10T21:28:30.538Z,6.70
2019-04-10T21:31:01.205Z,6.13
2019-04-10T21:33:32.310Z,5.87
2019-04-10T21:36:01.745Z,5.57
2019-04-10T21:38:30.903Z,5.57
2019-04-10T21:40:59.893Z,5.60
2019-04-10T21:43:30.226Z,5.67
2019-04-10T21:45:59.560Z,5.67
2019-04-10T21:48:30.954Z,5.73
2019-04-10T21:51:02.511Z,5.43
2019-04-10T21:53:31.729Z,5.23
2019-04-10T21:56:02.043Z,5.23
2019-04-10T21:58:31.102Z,6.20
2019-04-10T22:01:01.710Z,5.53
2019-04-10T22:03:31.716Z,5.13
2019-04-10T22:06:05.761Z,5.33
2019-04-10T22:08:52.046Z,5.17
2019-04-10T22:11:21.253Z,5.43
2019-04-10T22:13:50.640Z,5.07
2019-04-10T22:16:22.040Z,5.37
2019-04-10T22:18:51.986Z,4.77
2019-04-10T22:21:21.281Z,4.80
2019-04-10T22:23:51.056Z,4.73
2019-04-10T22:26:20.194Z,4.87
2019-04-10T22:28:49.713Z,4.90
2019-04-10T22:31:18.981Z,5.17
2019-04-10T22:33:48.936Z,5.23
2019-04-10T22:36:17.945Z,5.20
2019-04-10T22:38:46.847Z,5.13
2019-04-10T22:41:23.581Z,4.80
2019-04-10T22:43:46.975Z,5.20
2019-04-10T22:46:17.185Z,5.00
2019-04-10T22:48:46.256Z,4.87
2019-04-10T22:51:15.243Z,5.07
2019-04-10T22:53:44.378Z,4.90
2019-04-10T22:56:13.395Z,5.17
2019-04-10T22:58:43.141Z,5.27
2019-04-10T23:01:13.222Z,5.23
2019-04-10T23:03:43.190Z,4.80
2019-04-10T23:06:15.389Z,5.53
2019-04-10T23:08:44.419Z,5.03
2019-04-10T23:11:15.186Z,5.03
2019-04-10T23:13:44.251Z,5.10
2019-04-10T23:16:15.714Z,4.93
2019-04-10T23:18:44.243Z,4.60
2019-04-10T23:21:14.842Z,4.80
2019-04-10T23:23:43.770Z,5.20
2019-04-10T23:26:13.131Z,5.07
2019-04-10T23:28:44.001Z,4.80
2019-04-10T23:31:13.229Z,4.53
2019-04-10T23:33:42.266Z,4.80
2019-04-10T23:36:13.872Z,5.20
2019-04-10T23:38:43.787Z,4.70
2019-04-10T23:41:13.654Z,3.90
2019-04-10T23:43:43.919Z,4.90
2019-04-10T23:46:13.048Z,4.50
2019-04-10T23:48:42.036Z,4.60
2019-04-10T23:51:10.982Z,4.67
2019-04-10T23:53:40.450Z,4.67
2019-04-10T23:56:09.520Z,4.73
2019-04-10T23:58:38.498Z,5.00
